Time;durP1;ratioP1;P1;durP2;ratioP2;P2;SDS_P1;SDS_P2;PMS_P1;PMS_P2;Temp;Humidity;BMP_temperature;BMP_pressure;BME280_temperature;BME280_humidity;BME280_pressure;Samples;Min_cycle;Max_cycle;Signal;HPM_P1;HPM_P2
2020/12/20 00:00:25;;;;;;;6.38;4.00;;;12.80;98.10;;;;;;2105740;28;20373;-76
2020/12/20 00:01:26;;;;;;;4.30;3.40;;;12.80;98.10;;;;;;2113974;28;20028;-76
2020/12/20 00:02:26;;;;;;;6.20;3.58;;;12.80;98.00;;;;;;2123488;27;20026;-78
2020/12/20 00:03:27;;;;;;;4.72;3.58;;;12.80;98.10;;;;;;2114478;28;20403;-79
2020/12/20 00:04:28;;;;;;;4.70;3.13;;;12.80;98.10;;;;;;2105872;28;20020;-76
2020/12/20 00:05:28;;;;;;;4.55;3.67;;;12.80;98.20;;;;;;2114831;28;20425;-80
2020/12/20 00:06:33;;;;;;;4.22;3.40;;;12.70;98.10;;;;;;2123449;27;20026;-76
2020/12/20 00:07:33;;;;;;;3.53;3.22;;;12.70;98.20;;;;;;2123494;27;20011;-77
2020/12/20 00:08:34;;;;;;;7.43;4.20;;;12.70;98.30;;;;;;2114340;28;20089;-77
2020/12/20 00:09:35;;;;;;;4.53;3.47;;;12.70;98.40;;;;;;2114448;28;20026;-79
2020/12/20 00:10:35;;;;;;;5.45;3.20;;;12.70;98.40;;;;;;2114300;28;20542;-77
2020/12/20 00:11:38;;;;;;;4.63;3.30;;;12.60;98.40;;;;;;2114211;28;20036;-78
2020/12/20 00:12:39;;;;;;;4.55;3.20;;;12.60;98.40;;;;;;2123314;27;20027;-76
2020/12/20 00:13:39;;;;;;;4.95;3.55;;;12.60;98.40;;;;;;2114405;28;20020;-77
2020/12/20 00:14:40;;;;;;;4.25;3.50;;;12.60;98.40;;;;;;2114318;28;20011;-78
2020/12/20 00:15:41;;;;;;;7.60;3.15;;;12.60;98.40;;;;;;2114265;28;20035;-77
2020/12/20 00:16:41;;;;;;;5.50;4.03;;;12.60;98.50;;;;;;2114436;28;20020;-79
2020/12/20 00:17:49;;;;;;;3.90;3.60;;;12.60;98.50;;;;;;2114236;28;20016;-78
2020/12/20 00:18:50;;;;;;;7.88;3.90;;;12.60;98.50;;;;;;2115215;27;20019;-76
2020/12/20 00:19:50;;;;;;;6.82;3.47;;;12.50;98.50;;;;;;2123235;27;20127;-79
2020/12/20 00:20:51;;;;;;;3.45;3.15;;;12.50;98.50;;;;;;2113934;28;20235;-77
2020/12/20 00:21:53;;;;;;;6.40;3.53;;;12.50;98.50;;;;;;2113895;28;20123;-78
2020/12/20 00:22:55;;;;;;;7.43;3.60;;;12.50;98.60;;;;;;2123493;27;20250;-77
2020/12/20 00:23:55;;;;;;;4.88;3.95;;;12.50;98.60;;;;;;2123204;27;20044;-77
2020/12/20 00:24:56;;;;;;;4.65;3.58;;;12.50;98.60;;;;;;2123475;27;20081;-76
2020/12/20 00:25:57;;;;;;;4.50;3.58;;;12.40;98.70;;;;;;2123373;27;20024;-77
2020/12/20 00:26:59;;;;;;;4.70;3.92;;;12.40;98.70;;;;;;2123068;27;20023;-77
2020/12/20 00:27:59;;;;;;;3.63;3.28;;;12.40;98.80;;;;;;2114443;28;20168;-79
2020/12/20 00:29:00;;;;;;;6.07;3.67;;;12.40;98.80;;;;;;2113684;28;20495;-76
2020/12/20 00:30:00;;;;;;;4.72;3.78;;;12.40;98.90;;;;;;2113446;28;20023;-78
2020/12/20 00:31:01;;;;;;;3.88;3.45;;;12.40;98.90;;;;;;2114178;28;20020;-79
2020/12/20 00:32:03;;;;;;;3.95;3.40;;;12.40;99.00;;;;;;2113688;28;20110;-77
2020/12/20 00:33:04;;;;;;;3.47;3.17;;;12.40;99.00;;;;;;2114021;28;20023;-76
2020/12/20 00:34:06;;;;;;;5.05;3.72;;;12.30;98.90;;;;;;2114335;28;20028;-76
2020/12/20 00:35:07;;;;;;;4.20;3.42;;;12.40;99.00;;;;;;2123401;27;20114;-77
2020/12/20 00:36:08;;;;;;;4.18;3.78;;;12.30;99.00;;;;;;2123339;27;20041;-78
2020/12/20 00:37:09;;;;;;;5.13;3.28;;;12.30;99.10;;;;;;2114235;28;20125;-77
2020/12/20 00:38:09;;;;;;;4.28;3.28;;;12.30;99.10;;;;;;2114139;27;20032;-77
2020/12/20 00:39:10;;;;;;;5.43;3.85;;;12.30;99.30;;;;;;2123222;27;20101;-77
2020/12/20 00:40:11;;;;;;;4.22;3.33;;;12.30;99.30;;;;;;2113885;28;20723;-78
2020/12/20 00:41:12;;;;;;;4.75;3.40;;;12.30;99.30;;;;;;2114199;28;20020;-77
2020/12/20 00:42:13;;;;;;;4.90;3.10;;;12.30;99.30;;;;;;2113655;28;20105;-79
2020/12/20 00:43:13;;;;;;;4.78;3.85;;;12.30;99.40;;;;;;2105928;28;20063;-77
2020/12/20 00:44:14;;;;;;;4.30;3.45;;;12.30;99.40;;;;;;2105460;28;20043;-78
2020/12/20 00:45:14;;;;;;;5.18;3.50;;;12.30;99.50;;;;;;2114180;28;20231;-78
2020/12/20 00:46:15;;;;;;;3.70;3.20;;;12.30;99.60;;;;;;2123264;27;20300;-78
2020/12/20 00:47:15;;;;;;;4.10;3.50;;;12.30;99.70;;;;;;2123251;27;20031;-78
2020/12/20 00:48:16;;;;;;;4.55;3.58;;;12.30;99.60;;;;;;2122946;27;20144;-78
2020/12/20 00:49:16;;;;;;;6.03;3.78;;;12.20;99.70;;;;;;2123168;27;20138;-77
2020/12/20 00:50:17;;;;;;;5.18;3.28;;;12.20;99.70;;;;;;2122968;27;20047;-79
2020/12/20 00:51:18;;;;;;;8.40;3.60;;;12.20;99.70;;;;;;2123127;27;20234;-77
2020/12/20 00:52:18;;;;;;;4.82;3.78;;;12.20;99.80;;;;;;2122765;27;20075;-75
2020/12/20 00:53:19;;;;;;;4.55;3.40;;;12.20;99.80;;;;;;2123318;27;20027;-76
2020/12/20 00:54:19;;;;;;;4.35;3.28;;;12.20;99.90;;;;;;2123014;27;20578;-76
2020/12/20 00:55:20;;;;;;;3.92;3.53;;;12.20;99.90;;;;;;2123173;27;20491;-75
2020/12/20 00:56:21;;;;;;;3.30;2.97;;;12.20;99.90;;;;;;2123120;27;20108;-76
2020/12/20 00:57:21;;;;;;;4.82;3.53;;;12.20;99.90;;;;;;2123101;27;20364;-76
2020/12/20 00:58:22;;;;;;;4.80;3.90;;;12.20;99.90;;;;;;2123129;27;20031;-77
2020/12/20 00:59:22;;;;;;;4.70;3.33;;;12.20;99.90;;;;;;2114040;28;20020;-76
2020/12/20 01:00:23;;;;;;;3.60;3.25;;;12.20;99.90;;;;;;2113543;28;20549;-77
2020/12/20 01:01:24;;;;;;;4.88;3.22;;;12.20;99.90;;;;;;2122813;27;20068;-77
2020/12/20 01:02:24;;;;;;;4.35;3.10;;;12.20;99.90;;;;;;2123161;27;20031;-78
2020/12/20 01:03:25;;;;;;;3.28;2.97;;;12.20;99.90;;;;;;2123185;27;20348;-74
2020/12/20 01:04:26;;;;;;;3.40;3.10;;;12.20;99.90;;;;;;2122833;27;20035;-75
2020/12/20 01:05:26;;;;;;;6.45;3.45;;;12.20;99.90;;;;;;2123295;27;20100;-75
2020/12/20 01:06:27;;;;;;;5.18;3.78;;;12.20;99.90;;;;;;2122690;27;20031;-76
2020/12/20 01:07:32;;;;;;;3.60;3.28;;;12.20;99.90;;;;;;2123129;27;20019;-75
2020/12/20 01:08:32;;;;;;;7.15;4.15;;;12.20;99.90;;;;;;2123097;27;20543;-76
2020/12/20 01:09:33;;;;;;;6.43;3.45;;;12.20;99.90;;;;;;2122990;27;20016;-76
2020/12/20 01:10:34;;;;;;;5.18;3.00;;;12.20;99.90;;;;;;2122913;27;20047;-75
2020/12/20 01:11:35;;;;;;;4.45;3.40;;;12.20;99.90;;;;;;2113490;28;20468;-78
2020/12/20 01:12:35;;;;;;;4.88;3.40;;;12.20;99.90;;;;;;2113906;28;20031;-75
2020/12/20 01:13:36;;;;;;;3.95;3.53;;;12.20;99.90;;;;;;2123319;27;20102;-75
2020/12/20 01:14:36;;;;;;;5.03;2.97;;;12.20;99.90;;;;;;2113873;28;20020;-78
2020/12/20 01:15:37;;;;;;;7.20;3.85;;;12.20;99.90;;;;;;2114014;28;20026;-76
2020/12/20 01:16:38;;;;;;;3.20;2.90;;;12.20;99.90;;;;;;2122886;27;20027;-76
2020/12/20 01:17:38;;;;;;;6.30;3.90;;;12.20;99.90;;;;;;2113700;28;20114;-76
2020/12/20 01:18:39;;;;;;;4.43;3.40;;;12.20;99.90;;;;;;2113740;28;20031;-76
2020/12/20 01:19:39;;;;;;;4.72;2.88;;;12.10;99.90;;;;;;2113742;28;20020;-77
2020/12/20 01:20:40;;;;;;;4.43;3.45;;;12.10;99.90;;;;;;2113476;28;20036;-75
2020/12/20 01:21:40;;;;;;;5.10;3.30;;;12.10;99.90;;;;;;2112965;28;20019;-76
2020/12/20 01:22:41;;;;;;;3.63;3.10;;;12.10;99.90;;;;;;2113744;28;20024;-76
2020/12/20 01:23:42;;;;;;;4.43;3.40;;;12.10;99.90;;;;;;2113748;28;20486;-75
2020/12/20 01:24:42;;;;;;;3.97;3.30;;;12.20;99.90;;;;;;2123057;27;20106;-75
2020/12/20 01:25:43;;;;;;;5.43;3.47;;;12.10;99.90;;;;;;2123079;27;20027;-77
2020/12/20 01:26:43;;;;;;;5.35;3.70;;;12.20;99.90;;;;;;2123191;27;20474;-75
2020/12/20 01:27:44;;;;;;;3.42;3.13;;;12.20;99.90;;;;;;2122955;27;20470;-76
2020/12/20 01:28:44;;;;;;;5.22;3.15;;;12.10;99.90;;;;;;2122871;27;20024;-76
2020/12/20 01:29:45;;;;;;;3.85;2.97;;;12.10;99.90;;;;;;2122929;27;20031;-75
2020/12/20 01:30:45;;;;;;;4.85;3.17;;;12.20;99.90;;;;;;2122994;27;20031;-77
2020/12/20 01:31:48;;;;;;;4.60;3.88;;;12.10;99.90;;;;;;2122321;27;20084;-78
2020/12/20 01:32:49;;;;;;;4.30;3.88;;;12.20;99.90;;;;;;2122883;27;20030;-75
2020/12/20 01:33:49;;;;;;;5.53;3.70;;;12.20;99.90;;;;;;2122957;27;20023;-77
2020/12/20 01:34:50;;;;;;;5.90;3.13;;;12.10;99.90;;;;;;2113505;28;20032;-75
2020/12/20 01:35:51;;;;;;;4.80;3.38;;;12.20;99.90;;;;;;2113811;28;20115;-76
2020/12/20 01:36:54;;;;;;;6.03;3.05;;;12.10;99.90;;;;;;2122912;27;20045;-76
2020/12/20 01:37:55;;;;;;;8.50;3.50;;;12.20;99.90;;;;;;2122660;27;20103;-75
2020/12/20 01:38:55;;;;;;;6.00;3.67;;;12.20;99.90;;;;;;2122859;27;20383;-76
2020/12/20 01:39:56;;;;;;;4.75;2.90;;;12.10;99.90;;;;;;2122648;27;20039;-76
2020/12/20 01:40:56;;;;;;;4.13;3.72;;;12.10;99.90;;;;;;2122836;27;20031;-75
2020/12/20 01:41:57;;;;;;;4.95;3.40;;;12.20;99.90;;;;;;2122446;27;20031;-76
2020/12/20 01:42:57;;;;;;;3.90;3.08;;;12.20;99.90;;;;;;2122946;27;20470;-77
2020/12/20 01:43:58;;;;;;;4.53;3.25;;;12.20;99.90;;;;;;2122666;27;20023;-77
2020/12/20 01:44:58;;;;;;;3.67;3.28;;;12.20;99.90;;;;;;2122791;27;20054;-77
2020/12/20 01:45:59;;;;;;;3.65;3.35;;;12.20;99.90;;;;;;2122644;27;20011;-76
2020/12/20 01:47:01;;;;;;;4.30;3.25;;;12.20;99.90;;;;;;2122647;27;20019;-75
2020/12/20 01:48:03;;;;;;;3.58;2.95;;;12.10;99.90;;;;;;2122654;27;20490;-78
2020/12/20 01:49:03;;;;;;;5.95;3.85;;;12.20;99.90;;;;;;2113752;28;20286;-77
2020/12/20 01:50:04;;;;;;;3.17;2.88;;;12.10;99.90;;;;;;2104914;28;20027;-75
2020/12/20 01:51:06;;;;;;;4.55;3.42;;;12.10;99.90;;;;;;2105020;28;20024;-77
2020/12/20 01:52:07;;;;;;;6.80;3.33;;;12.20;99.90;;;;;;2104637;28;20020;-77
2020/12/20 01:53:10;;;;;;;5.60;3.42;;;12.20;99.90;;;;;;2113691;28;20019;-76
2020/12/20 01:54:10;;;;;;;4.22;3.45;;;12.20;99.90;;;;;;2122572;27;20466;-76
2020/12/20 01:55:13;;;;;;;3.78;3.38;;;12.20;99.90;;;;;;2122956;27;20023;-75
2020/12/20 01:56:13;;;;;;;4.60;3.28;;;12.20;99.90;;;;;;2113504;28;20016;-75
2020/12/20 01:57:14;;;;;;;4.63;3.35;;;12.20;99.90;;;;;;2113407;28;20242;-76
2020/12/20 01:58:14;;;;;;;3.75;3.15;;;12.20;99.90;;;;;;2122702;27;20057;-76
2020/12/20 01:59:15;;;;;;;4.38;3.10;;;12.20;99.90;;;;;;2113478;28;20145;-77
2020/12/20 02:00:15;;;;;;;4.22;3.17;;;12.20;99.90;;;;;;2104693;28;20028;-76
2020/12/20 02:01:16;;;;;;;7.28;3.53;;;12.20;99.90;;;;;;2113404;28;20051;-76
2020/12/20 02:02:17;;;;;;;6.28;3.72;;;12.20;99.90;;;;;;2113133;28;20050;-77
2020/12/20 02:03:17;;;;;;;4.18;3.45;;;12.20;99.90;;;;;;2113279;28;20038;-76
2020/12/20 02:04:18;;;;;;;6.55;3.60;;;12.20;99.90;;;;;;2122683;27;20366;-76
2020/12/20 02:05:18;;;;;;;4.75;3.72;;;12.20;99.90;;;;;;2121983;27;20352;-75
2020/12/20 02:06:19;;;;;;;4.80;3.63;;;12.20;99.90;;;;;;2113349;28;20044;-79
2020/12/20 02:07:20;;;;;;;4.68;3.28;;;12.20;99.90;;;;;;2113377;28;20024;-75
2020/12/20 02:08:20;;;;;;;4.28;3.70;;;12.20;99.90;;;;;;2122498;27;20070;-77
2020/12/20 02:09:21;;;;;;;5.53;3.67;;;12.20;99.90;;;;;;2122324;27;20060;-75
2020/12/20 02:10:21;;;;;;;4.50;3.55;;;12.20;99.90;;;;;;2122462;27;20015;-75
2020/12/20 02:11:22;;;;;;;3.63;3.33;;;12.20;99.90;;;;;;2122006;27;20495;-76
2020/12/20 02:12:27;;;;;;;4.32;3.70;;;12.20;99.90;;;;;;2122411;27;20031;-76
2020/12/20 02:13:27;;;;;;;3.67;3.38;;;12.20;99.90;;;;;;2122534;27;20140;-75
2020/12/20 02:14:28;;;;;;;6.13;4.00;;;12.20;99.90;;;;;;2122369;27;20031;-76
2020/12/20 02:15:29;;;;;;;5.45;3.30;;;12.20;99.90;;;;;;2122362;27;20030;-76
2020/12/20 02:16:29;;;;;;;5.82;3.75;;;12.20;99.90;;;;;;2113299;28;20042;-76
2020/12/20 02:17:30;;;;;;;3.95;3.33;;;12.20;99.90;;;;;;2113424;28;20101;-76
2020/12/20 02:18:31;;;;;;;6.95;3.60;;;12.20;99.90;;;;;;2122395;27;20023;-76
2020/12/20 02:19:31;;;;;;;3.75;3.30;;;12.20;99.90;;;;;;2122192;27;20034;-76
2020/12/20 02:20:32;;;;;;;3.53;3.22;;;12.20;99.90;;;;;;2122307;27;20034;-76
2020/12/20 02:21:33;;;;;;;5.13;3.53;;;12.20;99.90;;;;;;2122034;27;20407;-75
2020/12/20 02:22:33;;;;;;;6.90;3.25;;;12.20;99.90;;;;;;2113301;28;20077;-76
2020/12/20 02:23:44;;;;;;;5.15;3.88;;;12.20;99.90;;;;;;2113516;28;20054;-76
2020/12/20 02:24:44;;;;;;;4.60;3.20;;;12.20;99.90;;;;;;2122499;27;20043;-76
2020/12/20 02:25:45;;;;;;;4.22;3.35;;;12.20;99.90;;;;;;2122286;27;20045;-77
2020/12/20 02:26:45;;;;;;;4.20;3.00;;;12.20;99.90;;;;;;2113402;28;20028;-76
2020/12/20 02:27:46;;;;;;;6.25;4.10;;;12.20;99.90;;;;;;2113336;28;20031;-75
2020/12/20 02:28:51;;;;;;;6.00;3.80;;;12.20;99.90;;;;;;2122353;27;20060;-76
2020/12/20 02:29:52;;;;;;;3.33;3.03;;;12.20;99.90;;;;;;2122285;27;20093;-76
2020/12/20 02:30:53;;;;;;;8.65;3.40;;;12.20;99.90;;;;;;2113145;28;20117;-75
2020/12/20 02:31:53;;;;;;;5.82;3.85;;;12.20;99.90;;;;;;2112863;28;20023;-75
2020/12/20 02:32:54;;;;;;;3.85;3.15;;;12.20;99.90;;;;;;2122450;27;20054;-77
2020/12/20 02:33:56;;;;;;;6.70;3.88;;;12.20;99.90;;;;;;2113398;28;20110;-75
2020/12/20 02:34:56;;;;;;;4.80;3.28;;;12.20;99.90;;;;;;2113295;28;20142;-76
2020/12/20 02:35:57;;;;;;;5.90;3.63;;;12.20;99.90;;;;;;2122345;27;20116;-77
2020/12/20 02:36:58;;;;;;;4.82;3.00;;;12.20;99.90;;;;;;2112712;28;20026;-78
2020/12/20 02:37:58;;;;;;;4.82;3.72;;;12.20;99.90;;;;;;2113108;28;20074;-76
2020/12/20 02:38:59;;;;;;;3.75;3.38;;;12.20;99.90;;;;;;2121626;27;20124;-76
2020/12/20 02:40:00;;;;;;;3.58;3.10;;;12.20;99.90;;;;;;2121658;27;20140;-77
2020/12/20 02:41:01;;;;;;;7.85;3.95;;;12.10;99.90;;;;;;2122108;27;20027;-77
2020/12/20 02:42:02;;;;;;;5.13;3.63;;;12.20;99.90;;;;;;2112522;28;20221;-77
2020/12/20 02:43:06;;;;;;;5.72;4.00;;;12.20;99.90;;;;;;2113138;28;20027;-77
2020/12/20 02:44:06;;;;;;;4.57;3.45;;;12.20;99.90;;;;;;2120488;27;20383;-76
2020/12/20 02:45:07;;;;;;;3.90;3.20;;;12.20;99.90;;;;;;2112766;28;20031;-77
2020/12/20 02:46:07;;;;;;;3.97;3.40;;;12.20;99.90;;;;;;2113042;28;20051;-76
2020/12/20 02:47:10;;;;;;;5.80;3.53;;;12.10;99.90;;;;;;2122003;27;20085;-77
2020/12/20 02:48:10;;;;;;;5.10;3.97;;;12.20;99.90;;;;;;2121859;27;20404;-76
2020/12/20 02:49:11;;;;;;;4.93;3.75;;;12.20;99.90;;;;;;2122409;27;20034;-77
2020/12/20 02:50:11;;;;;;;4.65;3.40;;;12.20;99.90;;;;;;2122158;27;20027;-76
2020/12/20 02:51:12;;;;;;;5.60;3.65;;;12.20;99.90;;;;;;2122061;27;20490;-77
2020/12/20 02:52:13;;;;;;;4.65;3.67;;;12.20;99.90;;;;;;2112850;28;20023;-76
2020/12/20 02:53:14;;;;;;;4.00;3.35;;;12.20;99.90;;;;;;2113047;28;20560;-76
2020/12/20 02:54:14;;;;;;;5.47;3.80;;;12.20;99.90;;;;;;2113127;28;20034;-76
2020/12/20 02:55:15;;;;;;;4.88;3.47;;;12.20;99.90;;;;;;2113233;28;20500;-75
2020/12/20 02:56:19;;;;;;;5.75;4.00;;;12.20;99.90;;;;;;2112933;28;20035;-75
2020/12/20 02:57:19;;;;;;;3.55;3.25;;;12.20;99.90;;;;;;2113550;28;20024;-76
2020/12/20 02:58:20;;;;;;;6.18;3.53;;;12.20;99.90;;;;;;2113234;28;20483;-76
2020/12/20 02:59:20;;;;;;;3.78;3.47;;;12.20;99.90;;;;;;2113092;28;20042;-75
2020/12/20 03:00:21;;;;;;;3.85;3.35;;;12.20;99.90;;;;;;2112935;28;20024;-77
2020/12/20 03:01:22;;;;;;;4.90;3.67;;;12.20;99.90;;;;;;2112853;28;20531;-76
2020/12/20 03:02:22;;;;;;;3.80;3.08;;;12.20;99.90;;;;;;2122313;27;20163;-76
2020/12/20 03:03:23;;;;;;;5.78;3.83;;;12.20;99.90;;;;;;2122199;27;20425;-78
2020/12/20 03:04:24;;;;;;;5.70;3.40;;;12.20;99.90;;;;;;2122108;27;20026;-76
2020/12/20 03:05:24;;;;;;;4.13;3.28;;;12.30;99.90;;;;;;2113110;28;20016;-77
2020/12/20 03:06:25;;;;;;;6.80;3.28;;;12.20;99.90;;;;;;2112954;28;20054;-76
2020/12/20 03:07:25;;;;;;;8.52;3.35;;;12.20;99.90;;;;;;2122128;27;20016;-76
2020/12/20 03:08:26;;;;;;;3.85;3.10;;;12.20;99.90;;;;;;2112962;28;20038;-75
2020/12/20 03:09:26;;;;;;;6.50;3.50;;;12.20;99.90;;;;;;2112823;28;20457;-77
2020/12/20 03:10:27;;;;;;;4.20;3.60;;;12.20;99.90;;;;;;2122064;27;20045;-76
2020/12/20 03:11:28;;;;;;;5.10;3.17;;;12.20;99.90;;;;;;2112379;28;20076;-77
2020/12/20 03:12:28;;;;;;;4.68;3.35;;;12.20;99.90;;;;;;2112801;28;20039;-76
2020/12/20 03:13:29;;;;;;;6.45;3.05;;;12.20;99.90;;;;;;2104905;28;20606;-76
2020/12/20 03:14:29;;;;;;;7.43;3.78;;;12.20;99.90;;;;;;2104408;28;20031;-76
2020/12/20 03:15:30;;;;;;;6.47;3.38;;;12.20;99.90;;;;;;2104580;28;20020;-77
2020/12/20 03:16:31;;;;;;;3.88;3.30;;;12.20;99.90;;;;;;2104157;28;20107;-76
2020/12/20 03:17:31;;;;;;;5.57;3.67;;;12.20;99.90;;;;;;2112667;28;20102;-75
2020/12/20 03:18:32;;;;;;;4.43;3.50;;;12.20;99.90;;;;;;2122119;27;20030;-77
2020/12/20 03:19:33;;;;;;;4.97;3.22;;;12.20;99.90;;;;;;2122117;27;20026;-77
2020/12/20 03:20:33;;;;;;;3.30;3.00;;;12.20;99.90;;;;;;2112847;28;20384;-75
2020/12/20 03:21:34;;;;;;;3.95;3.33;;;12.20;99.90;;;;;;2112503;28;20023;-76
2020/12/20 03:22:35;;;;;;;5.15;3.03;;;12.20;99.90;;;;;;2122300;27;20475;-77
2020/12/20 03:23:35;;;;;;;3.47;3.17;;;12.20;99.90;;;;;;2121868;27;20019;-76
2020/12/20 03:24:36;;;;;;;6.40;3.72;;;12.20;99.90;;;;;;2121936;27;20483;-76
2020/12/20 03:25:36;;;;;;;5.63;3.03;;;12.20;99.90;;;;;;2122004;28;20483;-75
2020/12/20 03:26:37;;;;;;;5.18;4.03;;;12.20;99.90;;;;;;2122059;28;20047;-76
2020/12/20 03:27:37;;;;;;;5.93;3.70;;;12.20;99.90;;;;;;2112543;28;20024;-76
2020/12/20 03:28:38;;;;;;;4.93;3.40;;;12.20;99.90;;;;;;2113158;28;20023;-77
2020/12/20 03:29:38;;;;;;;4.63;3.45;;;12.20;99.90;;;;;;2112748;28;20024;-78
2020/12/20 03:30:39;;;;;;;4.40;3.60;;;12.20;99.90;;;;;;2113054;28;20050;-74
2020/12/20 03:31:39;;;;;;;3.83;3.15;;;12.20;99.90;;;;;;2121545;28;20055;-77
2020/12/20 03:32:41;;;;;;;3.60;3.30;;;12.20;99.90;;;;;;2112852;28;20016;-79
2020/12/20 03:33:41;;;;;;;4.00;3.60;;;12.20;99.90;;;;;;2104671;28;20012;-76
2020/12/20 03:34:42;;;;;;;4.57;3.05;;;12.10;99.90;;;;;;2113249;28;20434;-76
2020/12/20 03:35:43;;;;;;;9.63;3.60;;;12.20;99.90;;;;;;2122097;28;20070;-75
2020/12/20 03:36:44;;;;;;;4.15;3.53;;;12.20;99.90;;;;;;2121974;28;20046;-76
2020/12/20 03:37:55;;;;;;;3.72;3.38;;;12.20;99.90;;;;;;2121721;28;20104;-76
2020/12/20 03:38:55;;;;;;;4.88;3.63;;;12.10;99.90;;;;;;2112982;28;20451;-77
2020/12/20 03:39:56;;;;;;;5.63;3.40;;;12.10;99.90;;;;;;2112693;28;20055;-79
2020/12/20 03:40:57;;;;;;;3.78;2.88;;;12.10;99.90;;;;;;2121861;28;20092;-78
2020/12/20 03:41:58;;;;;;;4.97;3.30;;;12.10;99.90;;;;;;2112512;28;20090;-76
2020/12/20 03:42:58;;;;;;;3.80;3.28;;;12.10;99.90;;;;;;2112745;28;20485;-76
2020/12/20 03:43:59;;;;;;;3.38;3.08;;;12.10;99.90;;;;;;2121881;28;20019;-77
2020/12/20 03:44:59;;;;;;;5.43;3.72;;;12.10;99.90;;;;;;2122180;28;20096;-75
2020/12/20 03:46:00;;;;;;;5.13;3.55;;;12.10;99.90;;;;;;2112879;28;20091;-75
2020/12/20 03:47:01;;;;;;;6.22;3.28;;;12.10;99.90;;;;;;2112711;28;20024;-78
2020/12/20 03:48:02;;;;;;;5.10;3.53;;;12.10;99.90;;;;;;2112825;28;20360;-76
2020/12/20 03:49:03;;;;;;;7.45;4.00;;;12.10;99.90;;;;;;2112733;28;20019;-79
2020/12/20 03:50:03;;;;;;;4.68;3.28;;;12.10;99.90;;;;;;2121766;28;20054;-77
2020/12/20 03:51:04;;;;;;;8.90;3.67;;;12.10;99.90;;;;;;2121977;28;20027;-76
2020/12/20 03:52:04;;;;;;;4.85;3.85;;;12.10;99.90;;;;;;2112474;28;20266;-76
2020/12/20 03:53:05;;;;;;;5.78;3.60;;;12.10;99.90;;;;;;2112866;28;20020;-75
2020/12/20 03:54:07;;;;;;;6.55;3.40;;;12.10;99.90;;;;;;2122026;28;20518;-75
2020/12/20 03:55:07;;;;;;;6.15;3.97;;;12.10;99.90;;;;;;2121949;28;20022;-76
2020/12/20 03:56:09;;;;;;;4.60;3.50;;;12.10;99.90;;;;;;2121896;28;20023;-76
2020/12/20 03:57:09;;;;;;;6.97;3.53;;;12.10;99.90;;;;;;2121767;28;20486;-75
2020/12/20 03:58:10;;;;;;;3.80;3.40;;;12.10;99.90;;;;;;2122116;28;20015;-76
2020/12/20 03:59:10;;;;;;;5.53;3.45;;;12.00;99.90;;;;;;2121859;28;20027;-77
2020/12/20 04:00:11;;;;;;;4.35;3.83;;;12.00;99.90;;;;;;2121888;28;20019;-76
2020/12/20 04:01:11;;;;;;;5.43;3.63;;;12.00;99.90;;;;;;2112660;28;20024;-75
2020/12/20 04:02:12;;;;;;;7.50;3.53;;;12.00;99.90;;;;;;2104118;28;20191;-76
2020/12/20 04:03:12;;;;;;;4.97;3.70;;;12.00;99.90;;;;;;2112766;28;20044;-76
2020/12/20 04:04:13;;;;;;;4.28;3.70;;;12.00;99.90;;;;;;2122009;28;20226;-78
2020/12/20 04:05:14;;;;;;;5.57;3.47;;;12.00;99.90;;;;;;2121793;28;20011;-77
2020/12/20 04:06:15;;;;;;;4.97;4.00;;;12.00;99.90;;;;;;2112742;28;20074;-75
2020/12/20 04:07:15;;;;;;;5.60;3.75;;;12.00;99.90;;;;;;2104035;28;20154;-75
2020/12/20 04:08:16;;;;;;;5.22;3.72;;;12.00;99.90;;;;;;2112841;28;20437;-74
2020/12/20 04:09:17;;;;;;;3.60;3.30;;;12.00;99.90;;;;;;2121896;28;20027;-75
2020/12/20 04:10:17;;;;;;;4.57;3.80;;;12.00;99.90;;;;;;2121973;28;20094;-75
2020/12/20 04:11:18;;;;;;;3.78;3.38;;;12.00;99.90;;;;;;2121648;28;20084;-75
2020/12/20 04:12:18;;;;;;;6.20;3.60;;;12.00;99.90;;;;;;2121522;28;20030;-75
2020/12/20 04:13:19;;;;;;;4.63;3.78;;;12.00;99.90;;;;;;2121821;28;20034;-75
2020/12/20 04:14:19;;;;;;;7.82;3.83;;;11.90;99.90;;;;;;2112791;28;20058;-77
2020/12/20 04:15:20;;;;;;;4.35;3.42;;;11.90;99.90;;;;;;2112615;28;20034;-76
2020/12/20 04:16:20;;;;;;;4.18;3.78;;;11.90;99.90;;;;;;2122050;28;20386;-75
2020/12/20 04:17:21;;;;;;;4.30;3.65;;;11.90;99.90;;;;;;2112361;28;20034;-76
2020/12/20 04:18:22;;;;;;;5.78;3.58;;;11.90;99.90;;;;;;2112993;28;20028;-76
2020/12/20 04:19:22;;;;;;;4.78;3.63;;;11.90;99.90;;;;;;2121666;28;20395;-76
2020/12/20 04:20:23;;;;;;;4.45;3.50;;;11.90;99.90;;;;;;2121899;28;20390;-75
2020/12/20 04:21:23;;;;;;;4.22;3.70;;;11.90;99.90;;;;;;2121216;28;20030;-76
2020/12/20 04:22:24;;;;;;;4.43;4.03;;;11.90;99.90;;;;;;2113005;28;20399;-77
2020/12/20 04:23:24;;;;;;;4.00;3.60;;;11.90;99.90;;;;;;2112522;28;20055;-76
2020/12/20 04:24:25;;;;;;;5.00;3.65;;;11.80;99.90;;;;;;2121822;28;20056;-75
2020/12/20 04:25:26;;;;;;;7.53;3.60;;;11.90;99.90;;;;;;2121764;28;20387;-77
2020/12/20 04:26:26;;;;;;;3.92;3.60;;;11.80;99.90;;;;;;2112825;28;20053;-77
2020/12/20 04:27:27;;;;;;;5.90;3.97;;;11.80;99.90;;;;;;2112527;28;20028;-75
2020/12/20 04:28:27;;;;;;;4.18;3.55;;;11.80;99.90;;;;;;2122755;27;20023;-76
2020/12/20 04:29:28;;;;;;;5.90;3.92;;;11.80;99.90;;;;;;2123095;27;20090;-76
2020/12/20 04:30:28;;;;;;;5.07;4.03;;;11.80;99.90;;;;;;2114325;28;20023;-76
2020/12/20 04:31:29;;;;;;;5.20;3.50;;;11.70;99.90;;;;;;2113787;28;20054;-77
2020/12/20 04:32:29;;;;;;;4.38;3.85;;;11.70;99.90;;;;;;2114137;28;20023;-76
2020/12/20 04:33:30;;;;;;;5.53;4.07;;;11.80;99.90;;;;;;2114216;28;20024;-74
2020/12/20 04:34:31;;;;;;;3.80;3.42;;;11.70;99.90;;;;;;2123343;27;20220;-75
2020/12/20 04:35:31;;;;;;;5.38;3.42;;;11.70;99.90;;;;;;2123287;27;20019;-76
2020/12/20 04:36:32;;;;;;;4.63;3.88;;;11.70;99.90;;;;;;2123175;27;20047;-75
2020/12/20 04:37:32;;;;;;;5.85;4.07;;;11.70;99.90;;;;;;2114099;28;20076;-77
2020/12/20 04:38:34;;;;;;;4.07;3.75;;;11.70;99.90;;;;;;2105535;28;20031;-76
2020/12/20 04:39:34;;;;;;;4.63;3.65;;;11.70;99.90;;;;;;2114273;28;20038;-76
2020/12/20 04:40:35;;;;;;;5.28;3.88;;;11.70;99.90;;;;;;2123447;27;20034;-75
2020/12/20 04:41:36;;;;;;;5.20;3.95;;;11.70;99.90;;;;;;2113678;28;20031;-76
2020/12/20 04:42:39;;;;;;;6.97;3.97;;;11.70;99.90;;;;;;2114187;28;20027;-77
2020/12/20 04:43:40;;;;;;;6.72;4.25;;;11.60;99.90;;;;;;2123264;27;20114;-76
2020/12/20 04:44:41;;;;;;;8.43;4.13;;;11.70;99.90;;;;;;2123163;27;20516;-76
2020/12/20 04:45:43;;;;;;;5.60;3.85;;;11.60;99.90;;;;;;2113999;28;20024;-75
2020/12/20 04:46:44;;;;;;;5.75;3.85;;;11.60;99.90;;;;;;2114166;28;20055;-76
2020/12/20 04:47:48;;;;;;;4.13;3.72;;;11.60;99.90;;;;;;2123091;27;20015;-77
2020/12/20 04:48:50;;;;;;;5.03;3.85;;;11.60;99.90;;;;;;2123099;27;20534;-75
2020/12/20 04:49:52;;;;;;;4.47;3.97;;;11.60;99.90;;;;;;2123444;27;20023;-76
2020/12/20 04:50:54;;;;;;;5.28;4.05;;;11.50;99.90;;;;;;2123036;27;20438;-75
2020/12/20 04:51:58;;;;;;;5.28;3.95;;;11.60;99.90;;;;;;2113592;28;20024;-75
2020/12/20 04:52:59;;;;;;;5.63;3.67;;;11.60;99.90;;;;;;2114567;28;20135;-75
2020/12/20 04:54:02;;;;;;;4.90;3.85;;;11.50;99.90;;;;;;2123231;27;20068;-75
2020/12/20 04:55:03;;;;;;;4.97;3.95;;;11.50;99.90;;;;;;2123098;27;20023;-76
2020/12/20 04:56:06;;;;;;;6.20;4.18;;;11.50;99.90;;;;;;2123138;27;20047;-76
2020/12/20 04:57:07;;;;;;;9.93;4.38;;;11.50;99.90;;;;;;2122992;27;20113;-76
2020/12/20 04:58:08;;;;;;;5.68;3.80;;;11.50;99.90;;;;;;2114147;28;20061;-77
2020/12/20 04:59:10;;;;;;;5.03;3.70;;;11.50;99.90;;;;;;2114312;28;20019;-75
2020/12/20 05:00:11;;;;;;;5.95;3.70;;;11.50;99.90;;;;;;2123228;27;20635;-76
2020/12/20 05:01:11;;;;;;;5.25;3.80;;;11.50;99.90;;;;;;2113681;28;20042;-76
2020/12/20 05:02:12;;;;;;;6.47;3.95;;;11.50;99.90;;;;;;2113930;28;20016;-78
2020/12/20 05:03:13;;;;;;;5.35;4.68;;;11.50;99.90;;;;;;2123198;27;20164;-77
2020/12/20 05:04:14;;;;;;;13.82;4.15;;;11.50;99.90;;;;;;2123075;27;20019;-76
2020/12/20 05:05:15;;;;;;;5.07;3.47;;;11.50;99.90;;;;;;2123093;27;20356;-76
2020/12/20 05:06:17;;;;;;;5.63;3.75;;;11.50;99.90;;;;;;2123330;27;20026;-77
2020/12/20 05:07:18;;;;;;;5.28;4.25;;;11.50;99.90;;;;;;2113703;28;20042;-77
2020/12/20 05:08:23;;;;;;;7.53;4.45;;;11.50;99.90;;;;;;2114195;28;20039;-74
2020/12/20 05:09:23;;;;;;;4.68;3.83;;;11.50;99.90;;;;;;2122906;27;20530;-76
2020/12/20 05:10:38;;;;;;;5.20;3.70;;;11.40;99.90;;;;;;2123205;27;20027;-76
2020/12/20 05:11:43;;;;;;;4.93;3.80;;;11.50;99.90;;;;;;2122600;27;20024;-77
2020/12/20 05:12:43;;;;;;;6.43;3.67;;;11.50;99.90;;;;;;2123126;27;20391;-75
2020/12/20 05:13:44;;;;;;;5.43;4.10;;;11.40;99.90;;;;;;2122944;27;20030;-75
2020/12/20 05:14:44;;;;;;;6.03;4.18;;;11.40;99.90;;;;;;2123048;27;20023;-76
2020/12/20 05:15:45;;;;;;;4.78;3.92;;;11.40;99.90;;;;;;2114000;28;20073;-76
2020/12/20 05:16:45;;;;;;;5.20;4.05;;;11.50;99.90;;;;;;2114167;28;20073;-76
2020/12/20 05:17:46;;;;;;;5.05;4.47;;;11.50;99.90;;;;;;2123027;27;20051;-76